Tiempo atmosférico en la estación meteorológica de Villalón De Campos, Valladolid (763 m.)



Fecha
DESCASC
Temp. máxima en grados centígrados (hora)
DESCASC
Temp. mínima en grados centígrados (hora)
DESCASC
Temp. media en grados centígrados
DESCASC
Racha de viento máxima en m/sg (hora)
DESCASC
Velocidad máxima media en intervalos de 10 minutos(hora)
DESCASC
Precipitaciones diarias en mm
DESCASC
Precipitaciones de 00:00 a 06:00 en mm
DESCASC
Precipitaciones de 06:00 a 12:00 en mm
DESCASC
Precipitaciones de 12:00 a 18:00 en mm
DESCASC
Precipitaciones de 18:00 a 24:00 en mm
DESCASC
10-07-2020 30.7 (18:20) 14.6 (05:40) 22.7 12.5 (23:00) 5.28 (21:00) 0 0 0 0 0
09-07-2020 33.6 (17:10) 16.1 (05:30) 24.8 14.17 (19:40) 7.78 (19:40) 2.4 0 0.2 0 2.2
08-07-2020 32.9 (14:40) 17 (07:00) 25 15.56 (23:10) 7.78 (23:10) 0.8 0 0 0 0.8
07-07-2020 36.9 (19:00) 12.3 (06:50) 24.6 9.17 (00:30) 4.72 (00:50) 0 0 0 0 0
06-07-2020 29.7 (16:30) 15.5 (00:00) 22.6 11.11 (20:40) 5.83 (20:40) 0 0 0 0 0
05-07-2020 34.1 (17:40) 14.8 (06:40) 24.4 7.78 (23:50) 3.61 (10:10) 0 0 0 0 0
04-07-2020 32.3 (20:10) 10.5 (07:20) 21.4 7.78 (22:10) 3.33 (01:20) 0 0 0 0 0
03-07-2020 27.7 (18:20) 9.7 (06:40) 18.7 8.33 (00:20) 4.44 (09:20) 0 0 0 0 0
02-07-2020 27.7 (18:20) 10.3 (00:00) 19 11.67 (16:00) 5.56 (16:10) 0 0 0 0 0
01-07-2020 31.7 (16:10) 14.6 (00:00) 23.2 13.61 (17:10) 8.06 (16:40) 0 0 0 0 0
30-06-2020 34.5 (17:30) 14.4 (00:00) 24.4 10 (17:30) 5.56 (21:20) 0 0 0 0 0
29-06-2020 31.8 (18:50) 12.7 (00:00) 22.2 8.06 (22:50) 3.89 (20:40) 0 0 0 0 0
28-06-2020 30.1 (18:10) 10.6 (00:00) 20.4 9.72 (18:10) 5 (18:10) 0 0 0 0 0
27-06-2020 27.3 (16:50) 12.4 (00:00) 19.8 8.61 (20:10) 5.28 (18:30) 0 0 0 0 0
26-06-2020 28.3 (17:00) 13.9 (00:00) 21.1 12.5 (19:10) 8.61 (18:30) 0 0 0 0 0
25-06-2020 31.9 (16:50) 15.4 (00:00) 23.6 9.72 (17:40) 6.11 (18:30) 2 1.8 0.2 0 0
24-06-2020 30.7 (15:40) 15.8 (00:00) 23.3 18.61 (21:40) 12.22 (21:50) 0.8 0 0 0 0.8
23-06-2020 35.8 (19:10) 15.5 (00:00) 25.6 14.72 (21:50) 7.5 (21:00) 0 0 0 0 0
22-06-2020 32.3 (17:40) 13.3 (00:00) 22.8 7.78 (17:50) 3.89 (12:20) 0 0 0 0 0
21-06-2020 29.5 (17:40) 8.8 (00:00) 19.2 10.28 (21:40) 4.17 (11:30) 0 0 0 0 0
20-06-2020 29.5 (18:50) 9.1 (00:00) 19.3 10 (18:50) 5.56 (17:40) 0 0 0 0 0
19-06-2020 27.1 (19:40) 6.7 (00:00) 16.9 9.17 (17:10) 4.72 (22:20) 0 0 0 0 0
18-06-2020 24.3 (19:20) 8.9 (07:20) 16.6 8.33 (17:30) 5 (17:00) 0.2 0.2 0 0 0
17-06-2020 22.3 (17:40) 6.5 (00:00) 14.4 6.39 (22:40) 4.44 (22:00) 0.6 0 0 0 0.6
16-06-2020 20.8 (13:10) 6.9 (00:00) 13.8 14.17 (14:40) 8.33 (16:00) 4 0 0 4 0
15-06-2020 22 (16:30) 5.9 (00:00) 14 10.83 (17:50) 6.11 (20:50) 0 0 0 0 0
14-06-2020 20.4 (17:10) 4.5 (00:00) 12.4 10.28 (16:30) 5.56 (14:20) 0 0 0 0 0
13-06-2020 18.1 (16:30) 6.7 (00:00) 12.4 11.11 (14:10) 7.78 (18:00) 0 0 0 0 0
12-06-2020 15.6 (13:00) 7.7 (00:00) 11.7 17.22 (14:10) 9.72 (14:00) 5.4 0.2 1.2 2.8 1.2

Gráficas

Temp. máximas Temp. mínimas Temp. medias Precipitaciones Rachas de viento máximas Velocidades máximas media en intervalos de 10 minutos

Datos horarios

Fecha y hora oficial Temperatura (ºC) Velocidad del viento (km/h) Dirección del viento Racha (km/h) Dirección de racha Precipitación (mm) Presión (hPa) Tendencia (hPa) Humedad (%)
2020-07-11 23:00:00 21.8 16 Nordeste 39 Nordeste 0 -- -- 58
2020-07-11 22:00:00 23.5 19 Este 38 Este 0 -- -- 53
2020-07-11 21:00:00 26.6 18 Nordeste 32 Nordeste 0 -- -- 44
2020-07-11 20:00:00 29.7 13 Nordeste 31 Este 0 -- -- 37
2020-07-11 19:00:00 31 12 Nordeste 28 Nordeste 0 -- -- 34
2020-07-11 18:00:00 30.8 13 Nordeste 29 Nordeste 0 -- -- 35
2020-07-11 17:00:00 31.1 10 Este 26 Este 0 -- -- 34
2020-07-11 16:00:00 29.4 15 Este 30 Este 0 -- -- 38
2020-07-11 15:00:00 28 14 Este 31 Nordeste 0 -- -- 40
2020-07-11 14:00:00 26.6 13 Este 33 Este 0 -- -- 42
2020-07-11 13:00:00 24.7 15 Este 36 Este 0 -- -- 45
2020-07-11 12:00:00 22.3 14 Este 37 Este 0 -- -- 49
2020-07-11 11:00:00 20 16 Este 36 Nordeste 0 -- -- 55
2020-07-11 10:00:00 17.9 17 Este 36 Este 0 -- -- 59
2020-07-11 09:00:00 15.8 17 Este 35 Este 0 -- -- 67
2020-07-11 08:00:00 13.9 14 Nordeste 31 Nordeste 0 -- -- 75
2020-07-11 07:00:00 13 15 Nordeste 32 Este 0 -- -- 80
2020-07-11 06:00:00 13.2 13 Este 36 Nordeste 0 -- -- 80
2020-07-11 05:00:00 13.5 14 Nordeste 41 Nordeste 0 -- -- 79
2020-07-11 04:00:00 14 19 Este 37 Nordeste 0 -- -- 78
2020-07-11 03:00:00 14.2 15 Nordeste 37 Este 0 -- -- 79
2020-07-11 02:00:00 14.6 17 Este 43 Nordeste 0 -- -- 81
2020-07-11 01:00:00 15.1 17 Nordeste 45 Este 0 -- -- 80
2020-07-11 00:00:00 15.7 19 Este 40 Este 0 -- -- 77
2020-07-10 23:00:00 16.7 18 Este 45 Este 0 -- -- 72
2020-07-10 22:00:00 19 16 Este 34 Este 0 -- -- 66
2020-07-10 21:00:00 22.8 19 Este 39 Este 0 -- -- 54
2020-07-10 20:00:00 26.3 18 Este 39 Este 0 -- -- 46
2020-07-10 19:00:00 29.6 14 Este 32 Este 0 -- -- 39
2020-07-10 18:00:00 30.4 12 Este 27 Nordeste 0 -- -- 35
2020-07-10 17:00:00 30.1 12 Este 28 Este 0 -- -- 34
2020-07-10 16:00:00 29.3 13 Este 29 Este 0 -- -- 36
2020-07-10 15:00:00 28.6 11 Este 28 Sudeste 0 -- -- 37
2020-07-10 14:00:00 27.7 12 Este 28 Sudeste 0 -- -- 42
2020-07-10 13:00:00 26.2 12 Este 27 Nordeste 0 -- -- 49
2020-07-10 12:00:00 23.8 15 Nordeste 27 Este 0 -- -- 59
2020-07-10 11:00:00 22 13 Nordeste 28 Nordeste 0 -- -- 65
2020-07-10 10:00:00 20 13 Nordeste 27 Este 0 -- -- 73
2020-07-10 09:00:00 18 13 Nordeste 28 Este 0 -- -- 81
2020-07-10 08:00:00 16 13 Este 26 Este 0 -- -- 89
2020-07-10 07:00:00 15 12 Nordeste 31 Este 0 -- -- 92
2020-07-10 06:00:00 14.7 9 Este 22 Nordeste 0 -- -- 94
2020-07-10 05:00:00 14.9 6 Nordeste 18 Nordeste 0 -- -- 92
2020-07-10 04:00:00 15.6 10 Nordeste 22 Este 0 -- -- 90
2020-07-10 03:00:00 16.3 10 Nordeste 20 Nordeste 0 -- -- 85
2020-07-10 02:00:00 17.1 6 Nordeste 17 Nordeste 0 -- -- 81
2020-07-10 01:00:00 16.4 7 Nordeste 18 Nordeste 0 -- -- 87
2020-07-10 00:00:00 17.8 11 Nordeste 27 Noroeste 0 -- -- 80
2020-07-09 23:00:00 17 8 Noroeste 12 Noroeste 0 -- -- 87
2020-07-09 22:00:00 18.7 6 Este 27 Este 0.6 -- -- 76
2020-07-09 21:00:00 18.9 15 Este 28 Este 1.6 -- -- 76
2020-07-09 20:00:00 20.4 21 Sudeste 51 Sudeste 0 -- -- 67
2020-07-09 19:00:00 31.1 8 Sudeste 22 Sudeste 0 -- -- 32
2020-07-09 18:00:00 31.2 9 Este 31 Nordeste 0 -- -- 34
2020-07-09 17:00:00 33 11 Nordeste 28 Este 0 -- -- 28
2020-07-09 16:00:00 33 8 Nordeste 24 Norte 0 -- -- 29
2020-07-09 15:00:00 32.1 10 Este 21 Nordeste 0 -- -- 30
2020-07-09 14:00:00 31.4 8 Este 20 Este 0 -- -- 32
2020-07-09 13:00:00 30.4 7 Este 17 Este 0 -- -- 35
2020-07-09 12:00:00 28.1 9 Sudeste 22 Sudeste 0 -- -- 39
2020-07-09 11:00:00 26 10 Este 25 Este 0 -- -- 44
2020-07-09 10:00:00 24.1 10 Este 21 Este 0 -- -- 49
2020-07-09 09:00:00 21.1 9 Nordeste 22 Nordeste 0 -- -- 61
2020-07-09 08:00:00 16.8 8 Este 19 Este 0.2 -- -- 75
2020-07-09 07:00:00 16.4 8 Nordeste 15 Nordeste 0 -- -- 76
2020-07-09 06:00:00 16.3 8 Este 19 Este 0 -- -- 75
2020-07-09 05:00:00 17.3 7 Este 14 Este 0 -- -- 69
2020-07-09 04:00:00 17.7 8 Nordeste 18 Nordeste 0 -- -- 66
2020-07-09 03:00:00 18.8 8 Nordeste 15 Nordeste 0 -- -- 62
2020-07-09 02:00:00 19 5 Nordeste 12 Este 0 -- -- 62
2020-07-09 01:00:00 19.8 7 Este 27 Nordeste 0 -- -- 62
2020-07-09 00:00:00 21.3 16 Nordeste 56 Norte 0 -- -- 56
2020-07-08 23:00:00 20 16 Norte 31 Nordeste 0.6 -- -- 68
2020-07-08 22:00:00 20.8 3 Noroeste 25 Norte 0.2 -- -- 66
2020-07-08 21:00:00 24.7 14 Norte 29 Este 0 -- -- 45
2020-07-08 20:00:00 30 15 Este 48 Este 0 -- -- 24
2020-07-08 19:00:00 32 20 Este 40 Este 0 -- -- 26
2020-07-08 18:00:00 29.8 14 Este 42 Sudeste 0 -- -- 29
2020-07-08 17:00:00 31.6 14 Este 31 Este 0 -- -- 29
2020-07-08 16:00:00 31.7 14 Este 27 Este 0 -- -- 29
2020-07-08 15:00:00 31.4 14 Sudeste 29 Este 0 -- -- 26
2020-07-08 14:00:00 31.9 16 Sudeste 32 Sudeste 0 -- -- 29
2020-07-08 13:00:00 30 12 Este 26 Este 0 -- -- 32
2020-07-08 12:00:00 26 11 Este 29 Este 0 -- -- 40
2020-07-08 11:00:00 24.2 11 Este 26 Este 0 -- -- 42
2020-07-08 10:00:00 20.9 13 Este 29 Este 0 -- -- 48
2020-07-08 09:00:00 19.8 13 Este 26 Nordeste 0 -- -- 51
2020-07-08 08:00:00 18.9 10 Nordeste 23 Este 0 -- -- 51
2020-07-08 07:00:00 17 12 Nordeste 24 Nordeste 0 -- -- 57
2020-07-08 06:00:00 17.1 10 Nordeste 22 Nordeste 0 -- -- 59
2020-07-08 05:00:00 17.5 11 Nordeste 22 Este 0 -- -- 60
2020-07-08 04:00:00 18.2 11 Nordeste 23 Nordeste 0 -- -- 57
2020-07-08 03:00:00 18.9 11 Nordeste 26 Nordeste 0 -- -- 56
2020-07-08 02:00:00 19.8 11 Este 27 Este 0 -- -- 54
2020-07-08 01:00:00 21.1 12 Este 28 Nordeste 0 -- -- 50
2020-07-08 00:00:00 22.9 10 Nordeste 24 Este 0 -- -- 43
2020-07-07 23:00:00 25 9 Nordeste 17 Este 0 -- -- 36
2020-07-07 22:00:00 28.1 12 Este 23 Este 0 -- -- 30
2020-07-07 21:00:00 32.2 12 Oeste 22 Oeste 0 -- -- 20
2020-07-07 20:00:00 35.9 8 Sudoeste 19 Sudeste 0 -- -- 22
2020-07-07 19:00:00 36.9 4 Sur 24 Sudoeste 0 -- -- 21
2020-07-07 18:00:00 35.9 6 Sur 23 Sudoeste 0 -- -- 23
2020-07-07 17:00:00 34.8 8 Sudeste 17 Este 0 -- -- 25
2020-07-07 16:00:00 32.6 6 Norte 15 Norte 0 -- -- 26
2020-07-07 15:00:00 31.8 5 Nordeste 23 Este 0 -- -- 25
2020-07-07 14:00:00 30 10 Este 20 Nordeste 0 -- -- 23
2020-07-07 13:00:00 28.3 10 Este 23 Este 0 -- -- 19
2020-07-07 12:00:00 25.1 10 Este 23 Este 0 -- -- 27
2020-07-07 11:00:00 21.1 12 Este 26 Nordeste 0 -- -- 37
2020-07-07 10:00:00 18 15 Nordeste 27 Nordeste 0 -- -- 43
2020-07-07 09:00:00 15.9 11 Nordeste 27 Nordeste 0 -- -- 55
2020-07-07 08:00:00 13.5 11 Nordeste 23 Nordeste 0 -- -- 67
2020-07-07 07:00:00 12.3 8 Nordeste 17 Nordeste 0 -- -- 73
2020-07-07 06:00:00 12.7 9 Nordeste 17 Nordeste 0 -- -- 68
2020-07-07 05:00:00 13.4 7 Este 27 Este 0 -- -- 66
2020-07-07 04:00:00 14 12 Este 27 Este 0 -- -- 64
2020-07-07 03:00:00 14.2 11 Este 32 Nordeste 0 -- -- 68
2020-07-07 02:00:00 14.5 14 Este 33 Nordeste 0 -- -- 72
2020-07-07 01:00:00 15.1 13 Este 33 Este 0 -- -- 72
2020-07-07 00:00:00 16.1 16 Este 36 Este 0 -- -- 70
2020-07-06 23:00:00 17.8 16 Nordeste 36 Este 0 -- -- 69
2020-07-06 22:00:00 20.3 15 Este 35 Nordeste 0 -- -- 61
2020-07-06 21:00:00 24 17 Este 40 Este 0 -- -- 44
2020-07-06 20:00:00 26.4 18 Este 39 Este 0 -- -- 44
2020-07-06 19:00:00 28.6 15 Este 31 Este 0 -- -- 38
2020-07-06 18:00:00 29.7 13 Nordeste 30 Este 0 -- -- 37
2020-07-06 17:00:00 29.5 14 Este 29 Este 0 -- -- 37
2020-07-06 16:00:00 28.4 15 Nordeste 29 Nordeste 0 -- -- 39
2020-07-06 15:00:00 28.2 13 Nordeste 35 Nordeste 0 -- -- 41
2020-07-06 14:00:00 27 15 Este 31 Este 0 -- -- 45
2020-07-06 13:00:00 25.4 14 Este 32 Este 0 -- -- 50
2020-07-06 12:00:00 24.1 16 Nordeste 31 Este 0 -- -- 54
2020-07-06 11:00:00 22.5 15 Nordeste 30 Este 0 -- -- 59
2020-07-06 10:00:00 20.3 15 Nordeste 30 Nordeste 0 -- -- 65
2020-07-06 09:00:00 18.2 16 Nordeste 33 Este 0 -- -- 70
2020-07-06 08:00:00 17.3 12 Este 25 Este 0 -- -- 72
2020-07-06 07:00:00 15.5 7 Este 17 Este 0 -- -- 79
2020-07-06 06:00:00 15.8 8 Este 16 Este 0 -- -- 77
2020-07-06 05:00:00 16.6 10 Nordeste 21 Nordeste 0 -- -- 76
2020-07-06 04:00:00 17.3 8 Nordeste 23 Nordeste 0 -- -- 73
2020-07-06 03:00:00 18.4 9 Nordeste 23 Este 0 -- -- 68
2020-07-06 02:00:00 19.3 9 Este 24 Nordeste 0 -- -- 63
2020-07-06 01:00:00 20.7 12 Este 30 Este 0 -- -- 62
2020-07-06 00:00:00 22.6 12 Este 28 Nordeste 0 -- -- 60
2020-07-05 23:00:00 25 8 Nordeste 24 Nordeste 0 -- -- 52
2020-07-05 22:00:00 27.9 10 Nordeste 22 Nordeste 0 -- -- 42
2020-07-05 21:00:00 32.3 4 Este 13 Nordeste 0 -- -- 28
2020-07-05 20:00:00 33.5 5 Nordeste 14 Norte 0 -- -- 27
2020-07-05 19:00:00 33.2 6 Norte 18 Noroeste 0 -- -- 27
2020-07-05 18:00:00 34 5 Sudoeste 17 Nordeste 0 -- -- 27
2020-07-05 17:00:00 33 8 Este 19 Nordeste 0 -- -- 28
2020-07-05 16:00:00 31.8 5 Sudeste 20 Noroeste 0 -- -- 29
2020-07-05 15:00:00 30.8 8 Nordeste 19 Nordeste 0 -- -- 32
2020-07-05 14:00:00 29.7 9 Nordeste 18 Nordeste 0 -- -- 34
2020-07-05 13:00:00 29.1 7 Nordeste 22 Nordeste 0 -- -- 35
2020-07-05 12:00:00 27.4 9 Nordeste 22 Este 0 -- -- 37
2020-07-05 11:00:00 25.7 10 Nordeste 25 Este 0 -- -- 42
2020-07-05 10:00:00 23.4 10 Este 22 Nordeste 0 -- -- 47
2020-07-05 09:00:00 20.1 9 Nordeste 19 Este 0 -- -- 51
2020-07-05 08:00:00 16.8 10 Nordeste 15 Nordeste 0 -- -- 57
2020-07-05 07:00:00 14.9 8 Nordeste 13 Nordeste 0 -- -- 59
2020-07-05 06:00:00 15.6 8 Nordeste 15 Nordeste 0 -- -- 61
2020-07-05 05:00:00 15.9 7 Nordeste 13 Este 0 -- -- 66
2020-07-05 04:00:00 16.6 6 Nordeste 18 Este 0 -- -- 61
2020-07-05 03:00:00 17.5 7 Este 23 Este 0 -- -- 56
2020-07-05 02:00:00 18.2 9 Este 23 Este 0 -- -- 52
2020-07-05 01:00:00 19.3 9 Este 21 Nordeste 0 -- -- 49
2020-07-05 00:00:00 20.7 10 Nordeste 24 Este 0 -- -- 47
2020-07-04 23:00:00 22.1 8 Este 28 Nordeste 0 -- -- 42
2020-07-04 22:00:00 24.9 10 Este 21 Este 0 -- -- 36
2020-07-04 21:00:00 30.2 5 Nordeste 9 Nordeste 0 -- -- 26
2020-07-04 20:00:00 32 3 Oeste 13 Nordeste 0 -- -- 22
2020-07-04 19:00:00 30.8 9 Nordeste 15 Nordeste 0 -- -- 23
2020-07-04 18:00:00 28.8 6 Nordeste 17 Este 0 -- -- 25
2020-07-04 17:00:00 30.2 7 Norte 17 Norte 0 -- -- 25
2020-07-04 16:00:00 29.5 7 Sudeste 17 Nordeste 0 -- -- 26
2020-07-04 15:00:00 28.3 6 Nordeste 17 Sudoeste 0 -- -- 30
2020-07-04 14:00:00 27.1 6 Sudeste 15 Oeste 0 -- -- 32
2020-07-04 13:00:00 26 5 Sur 12 Norte 0 -- -- 36
2020-07-04 12:00:00 23.4 6 Nordeste 13 Nordeste 0 -- -- 41
2020-07-04 11:00:00 21.2 8 Nordeste 14 Nordeste 0 -- -- 46
2020-07-04 10:00:00 18.4 7 Nordeste 14 Nordeste 0 -- -- 58
2020-07-04 09:00:00 15.3 6 Nordeste 15 Nordeste 0 -- -- 69
2020-07-04 08:00:00 12.2 8 Nordeste 14 Nordeste 0 -- -- 82
2020-07-04 07:00:00 10.7 5 Nordeste 12 Nordeste 0 -- -- 85
2020-07-04 06:00:00 10.9 4 Nordeste 15 Nordeste 0 -- -- 86
2020-07-04 05:00:00 11.3 6 Este 12 Este 0 -- -- 85
2020-07-04 04:00:00 11.9 6 Este 18 Este 0 -- -- 83
2020-07-04 03:00:00 12.7 7 Este 21 Este 0 -- -- 81
2020-07-04 02:00:00 13.8 8 Este 20 Este 0 -- -- 76
2020-07-04 01:00:00 15.2 9 Nordeste 22 Este 0 -- -- 71
2020-07-04 00:00:00 16.9 9 Nordeste 21 Este 0 -- -- 61
2020-07-03 23:00:00 18.1 4 Este 9 Este 0 -- -- 44
2020-07-03 22:00:00 21.1 3 Este 14 Sudeste 0 -- -- 36
2020-07-03 21:00:00 25.4 6 Este 18 Este 0 -- -- 29
2020-07-03 20:00:00 27.1 7 Sudeste 17 Sudeste 0 -- -- 27
2020-07-03 19:00:00 26.6 9 Este 19 Este 0 -- -- 30
2020-07-03 18:00:00 26.5 9 Sudeste 19 Este 0 -- -- 31
2020-07-03 17:00:00 26.1 7 Este 18 Nordeste 0 -- -- 32
2020-07-03 16:00:00 24 9 Norte 20 Nordeste 0 -- -- 35
2020-07-03 15:00:00 23.4 7 Nordeste 24 Nordeste 0 -- -- 37
2020-07-03 14:00:00 21.9 10 Nordeste 26 Nordeste 0 -- -- 40
2020-07-03 13:00:00 20.7 10 Nordeste 26 Nordeste 0 -- -- 46
2020-07-03 12:00:00 19.3 10 Este 24 Este 0 -- -- 49
2020-07-03 11:00:00 17.4 13 Este 28 Nordeste 0 -- -- 55
2020-07-03 10:00:00 15.8 13 Este 30 Este 0 -- -- 61
2020-07-03 09:00:00 13.9 15 Este 27 Este 0 -- -- 68
2020-07-03 08:00:00 11.5 12 Nordeste 21 Nordeste 0 -- -- 80
2020-07-03 07:00:00 9.7 8 Nordeste 19 Nordeste 0 -- -- 86
2020-07-03 06:00:00 10.1 10 Nordeste 18 Nordeste 0 -- -- 85
2020-07-03 05:00:00 10.2 6 Nordeste 14 Nordeste 0 -- -- 86
2020-07-03 04:00:00 10.7 7 Nordeste 17 Nordeste 0 -- -- 83
2020-07-03 03:00:00 11.2 7 Nordeste 22 Nordeste 0 -- -- 81
2020-07-03 02:00:00 12 10 Nordeste 26 Este 0 -- -- 76
2020-07-03 01:00:00 12.8 10 Nordeste 30 Este 0 -- -- 74
2020-07-03 00:00:00 13.8 9 Nordeste 32 Este 0 -- -- 70
2020-07-02 23:00:00 14.2 15 Nordeste 31 Nordeste 0 -- -- 70
2020-07-02 22:00:00 16 14 Este 34 Nordeste 0 -- -- 65
2020-07-02 21:00:00 19.8 17 Este 37 Este 0 -- -- 55
2020-07-02 20:00:00 24.8 19 Nordeste 42 Nordeste 0 -- -- 44
2020-07-02 19:00:00 27.1 14 Oeste 30 Oeste 0 -- -- 28
2020-07-02 18:00:00 27.5 12 Oeste 31 Oeste 0 -- -- 30
2020-07-02 17:00:00 26.4 16 Oeste 32 Sudoeste 0 -- -- 31
2020-07-02 16:00:00 26.7 14 Oeste 42 Sudoeste 0 -- -- 31
2020-07-02 15:00:00 24.3 14 Oeste 31 Noroeste 0 -- -- 40
2020-07-02 14:00:00 23.5 9 Noroeste 32 Oeste 0 -- -- 47
2020-07-02 13:00:00 24 14 Sudoeste 25 Sudoeste 0 -- -- 45
2020-07-02 12:00:00 22 6 Sudoeste 23 Sudoeste 0 -- -- 51
2020-07-02 11:00:00 21.1 7 Norte 26 Noroeste 0 -- -- 53
2020-07-02 10:00:00 19.1 14 Noroeste 22 Noroeste 0 -- -- 60
2020-07-02 09:00:00 17.5 8 Oeste 12 Oeste 0 -- -- 69
2020-07-02 08:00:00 14 3 Noroeste 5 Noroeste 0 -- -- 94
2020-07-02 07:00:00 10.4 2 Noroeste 5 Oeste 0 -- -- 95
2020-07-02 06:00:00 11 2 Norte 8 Noroeste 0 -- -- 94
2020-07-02 05:00:00 12 0 Calma 9 Noroeste 0 -- -- 91
2020-07-02 04:00:00 14.1 5 Este 9 Sudeste 0 -- -- 90
2020-07-02 03:00:00 14.9 3 Nordeste 9 Este 0 -- -- 87
2020-07-02 02:00:00 15.9 5 Este 14 Nordeste 0 -- -- 84
2020-07-02 01:00:00 16.3 6 Norte 13 Este 0 -- -- 82
2020-07-02 00:00:00 18.1 8 Este 19 Nordeste 0 -- -- 75
2020-07-01 23:00:00 19.6 9 Noroeste 24 Noroeste 0 -- -- 57
2020-07-01 22:00:00 22.4 15 Noroeste 39 Noroeste 0 -- -- 48
2020-07-01 21:00:00 26.2 19 Noroeste 40 Noroeste 0 -- -- 39
2020-07-01 20:00:00 29 21 Oeste 39 Oeste 0 -- -- 32
2020-07-01 19:00:00 30.3 22 Oeste 45 Sudoeste 0 -- -- 29
2020-07-01 18:00:00 31.2 24 Sudoeste 49 Oeste 0 -- -- 23
2020-07-01 17:00:00 31 26 Oeste 44 Sudoeste 0 -- -- 23
2020-07-01 16:00:00 31.5 20 Oeste 46 Oeste 0 -- -- 22
2020-07-01 15:00:00 30.4 14 Sudoeste 32 Oeste 0 -- -- 32
2020-07-01 14:00:00 29 16 Oeste 32 Oeste 0 -- -- 37
2020-07-01 13:00:00 27.5 15 Oeste 28 Oeste 0 -- -- 42
2020-07-01 12:00:00 26.7 16 Oeste 29 Oeste 0 -- -- 50
2020-07-01 11:00:00 25.5 13 Oeste 21 Noroeste 0 -- -- 52
2020-07-01 10:00:00 23.8 12 Noroeste 20 Noroeste 0 -- -- 56
2020-07-01 09:00:00 21.7 8 Noroeste 12 Norte 0 -- -- 61
2020-07-01 08:00:00 18.2 3 Noroeste 5 Noroeste 0 -- -- 75
2020-07-01 07:00:00 14.8 3 Oeste 5 Noroeste 0 -- -- 85
2020-07-01 06:00:00 15.3 4 Noroeste 8 Norte 0 -- -- 86
2020-07-01 05:00:00 15.6 4 Oeste 8 Noroeste 0 -- -- 86
2020-07-01 04:00:00 18.8 4 Nordeste 13 Nordeste 0 -- -- 75
2020-07-01 03:00:00 20.3 8 Nordeste 13 Este 0 -- -- 71
2020-07-01 02:00:00 19.8 4 Norte 13 Norte 0 -- -- 71
2020-07-01 01:00:00 21.7 9 Norte 18 Norte 0 -- -- 62
2020-07-01 00:00:00 22.7 11 Norte 23 Nordeste 0 -- -- 56
2020-06-30 23:00:00 24.2 16 Norte 29 Norte 0 -- -- 50
2020-06-30 22:00:00 25.6 12 Norte 32 Noroeste 0 -- -- 42
2020-06-30 21:00:00 30.9 14 Oeste 28 Sudoeste 0 -- -- 25
2020-06-30 20:00:00 32.9 17 Oeste 30 Oeste 0 -- -- 23
2020-06-30 19:00:00 34.4 10 Sudoeste 35 Sur 0 -- -- 25
2020-06-30 18:00:00 34.3 13 Oeste 36 Oeste 0 -- -- 24
2020-06-30 17:00:00 33.5 16 Oeste 30 Oeste 0 -- -- 24
2020-06-30 16:00:00 33.5 6 Sudeste 27 Sudoeste 0 -- -- 28
2020-06-30 15:00:00 33.4 9 Sur 21 Sudoeste 0 -- -- 30
2020-06-30 14:00:00 30.8 7 Nordeste 17 Sudeste 0 -- -- 36
2020-06-30 13:00:00 29.7 6 Sudeste 15 Este 0 -- -- 38
2020-06-30 12:00:00 27.2 9 Nordeste 18 Este 0 -- -- 41
2020-06-30 11:00:00 25 10 Nordeste 22 Este 0 -- -- 41
2020-06-30 10:00:00 22.1 11 Nordeste 23 Nordeste 0 -- -- 45
2020-06-30 09:00:00 19.6 10 Nordeste 20 Este 0 -- -- 46
2020-06-30 08:00:00 16.1 12 Nordeste 18 Nordeste 0 -- -- 50
2020-06-30 07:00:00 14.4 9 Nordeste 14 Nordeste 0 -- -- 52
2020-06-30 06:00:00 15 10 Nordeste 23 Nordeste 0 -- -- 53
2020-06-30 05:00:00 15.9 12 Nordeste 24 Nordeste 0 -- -- 52
2020-06-30 04:00:00 16.2 8 Nordeste 22 Este 0 -- -- 60
2020-06-30 03:00:00 16.8 9 Este 21 Este 0 -- -- 57
2020-06-30 02:00:00 17.6 8 Este 27 Este 0 -- -- 52
2020-06-30 01:00:00 18.8 12 Este 24 Nordeste 0 -- -- 46
2020-06-30 00:00:00 20.1 10 Este 25 Nordeste 0 -- -- 66
2020-06-29 23:00:00 22 12 Nordeste 29 Este 0 -- -- 62
2020-06-29 22:00:00 25.3 11 Este 26 Este 0 -- -- 49
2020-06-29 21:00:00 28.8 13 Noroeste 21 Noroeste 0 -- -- 38
2020-06-29 20:00:00 30.8 9 Noroeste 21 Noroeste 0 -- -- 33
2020-06-29 19:00:00 31.6 6 Sur 14 Noroeste 0 -- -- 33
2020-06-29 18:00:00 30.4 5 Nordeste 13 Nordeste 0 -- -- 36
2020-06-29 17:00:00 30 8 Este 19 Este 0 -- -- 37
2020-06-29 16:00:00 29.6 7 Nordeste 21 Sudeste 0 -- -- 40
2020-06-29 15:00:00 28.3 6 Nordeste 16 Nordeste 0 -- -- 43
2020-06-29 14:00:00 26.7 5 Norte 17 Este 0 -- -- 46
2020-06-29 13:00:00 27 6 Sudeste 16 Este 0 -- -- 47
2020-06-29 12:00:00 24.9 7 Nordeste 21 Noroeste 0 -- -- 56
2020-06-29 11:00:00 22.7 6 Nordeste 15 Este 0 -- -- 62
2020-06-29 10:00:00 20.6 9 Este 19 Este 0 -- -- 69
2020-06-29 09:00:00 18.6 9 Este 18 Nordeste 0 -- -- 77
2020-06-29 08:00:00 15.8 7 Nordeste 13 Este 0 -- -- 86
2020-06-29 07:00:00 13.1 4 Norte 6 Nordeste 0 -- -- 94
2020-06-29 06:00:00 14.1 5 Nordeste 11 Este 0 -- -- 90
2020-06-29 05:00:00 14.6 6 Nordeste 12 Nordeste 0 -- -- 90
2020-06-29 04:00:00 15.2 5 Este 13 Nordeste 0 -- -- 87
2020-06-29 03:00:00 16 6 Nordeste 12 Nordeste 0 -- -- 84
2020-06-29 02:00:00 16.9 5 Nordeste 14 Este 0 -- -- 81
2020-06-29 01:00:00 18.3 7 Este 18 Nordeste 0 -- -- 74
2020-06-29 00:00:00 19.6 6 Nordeste 23 Noroeste 0 -- -- 62
2020-06-28 23:00:00 21.4 15 Noroeste 24 Noroeste 0 -- -- 56
2020-06-28 22:00:00 23.5 14 Noroeste 28 Noroeste 0 -- -- 53
2020-06-28 21:00:00 27.6 14 Noroeste 20 Noroeste 0 -- -- 42
2020-06-28 20:00:00 30.1 10 Sudoeste 30 Sudoeste 0 -- -- 38
2020-06-28 19:00:00 30 14 Sudoeste 35 Sudoeste 0 -- -- 37
2020-06-28 18:00:00 29.9 15 Oeste 29 Sudoeste 0 -- -- 36
2020-06-28 17:00:00 29 13 Oeste 28 Oeste 0 -- -- 37
2020-06-28 16:00:00 28.3 17 Oeste 29 Oeste 0 -- -- 40
2020-06-28 15:00:00 27.2 14 Oeste 27 Oeste 0 -- -- 41
2020-06-28 14:00:00 25.6 13 Oeste 25 Oeste 0 -- -- 47
2020-06-28 13:00:00 24.4 12 Noroeste 27 Oeste 0 -- -- 47
2020-06-28 12:00:00 23.3 12 Oeste 27 Sudoeste 0 -- -- 49
2020-06-28 11:00:00 21.8 13 Oeste 22 Oeste 0 -- -- 55
2020-06-28 10:00:00 19.6 11 Oeste 21 Noroeste 0 -- -- 63
2020-06-28 09:00:00 17.4 14 Noroeste 19 Noroeste 0 -- -- 71
2020-06-28 08:00:00 14.8 4 Oeste 7 Noroeste 0 -- -- 88
2020-06-28 07:00:00 10.6 3 Oeste 4 Sudoeste 0 -- -- 94
2020-06-28 06:00:00 11.9 2 Norte 6 Oeste 0 -- -- 93
2020-06-28 05:00:00 11.8 4 Oeste 13 Oeste 0 -- -- 92
2020-06-28 04:00:00 12.6 8 Oeste 13 Oeste 0 -- -- 90
2020-06-28 03:00:00 13.9 9 Oeste 12 Oeste 0 -- -- 87
2020-06-28 02:00:00 14.6 5 Oeste 8 Noroeste 0 -- -- 84
2020-06-28 01:00:00 15.5 0 Calma 10 Noroeste 0 -- -- 80
2020-06-28 00:00:00 17.3 7 Noroeste 18 Noroeste 0 -- -- 72
2020-06-27 23:00:00 18.9 8 Noroeste 22 Noroeste 0 -- -- 67
2020-06-27 22:00:00 21.4 14 Noroeste 23 Noroeste 0 -- -- 59
2020-06-27 21:00:00 24.1 13 Noroeste 31 Oeste 0 -- -- 51
2020-06-27 20:00:00 25.9 18 Oeste 27 Noroeste 0 -- -- 45
2020-06-27 19:00:00 25.6 15 Oeste 25 Oeste 0 -- -- 46
2020-06-27 18:00:00 26.3 11 Oeste 28 Oeste 0 -- -- 44
2020-06-27 17:00:00 27 17 Oeste 30 Oeste 0 -- -- 40
2020-06-27 16:00:00 26.5 14 Oeste 31 Oeste 0 -- -- 42
2020-06-27 15:00:00 25.3 13 Oeste 29 Oeste 0 -- -- 47
2020-06-27 14:00:00 23.9 13 Sudoeste 26 Sudoeste 0 -- -- 51
2020-06-27 13:00:00 21.3 8 Oeste 24 Sudoeste 0 -- -- 57
2020-06-27 12:00:00 21.5 12 Sudoeste 21 Sudoeste 0 -- -- 58
2020-06-27 11:00:00 19.9 11 Sudoeste 25 Oeste 0 -- -- 63
2020-06-27 10:00:00 19.8 14 Sudoeste 22 Sudoeste 0 -- -- 66
2020-06-27 09:00:00 17.8 13 Sudoeste 21 Sudoeste 0 -- -- 74
2020-06-27 08:00:00 15 15 Sudoeste 22 Sudoeste 0 -- -- 87
2020-06-27 07:00:00 12.5 12 Sudoeste 16 Sudoeste 0 -- -- 93
2020-06-27 06:00:00 13 12 Oeste 15 Oeste 0 -- -- 92
2020-06-27 05:00:00 12.8 5 Sudoeste 18 Oeste 0 -- -- 91
2020-06-27 04:00:00 13.1 12 Oeste 15 Oeste 0 -- -- 89
2020-06-27 03:00:00 15.2 7 Sudoeste 13 Oeste 0 -- -- 79
2020-06-27 02:00:00 14.8 9 Sudoeste 15 Oeste 0 -- -- 81
2020-06-27 01:00:00 15.9 5 Noroeste 13 Noroeste 0 -- -- 75
2020-06-27 00:00:00 16 10 Noroeste 12 Noroeste 0 -- -- 73
2020-06-26 23:00:00 17.3 9 Noroeste 17 Noroeste 0 -- -- 65
2020-06-26 22:00:00 20.2 13 Noroeste 21 Oeste 0 -- -- 53
2020-06-26 21:00:00 24.2 15 Oeste 32 Oeste 0 -- -- 42
2020-06-26 20:00:00 25.6 22 Oeste 45 Sudoeste 0 -- -- 38
2020-06-26 19:00:00 26.5 27 Oeste 42 Oeste 0 -- -- 31
2020-06-26 18:00:00 26.6 19 Sudoeste 36 Sudoeste 0 -- -- 29
2020-06-26 17:00:00 28.3 21 Sudoeste 40 Sudoeste 0 -- -- 24
2020-06-26 16:00:00 27.1 25 Sudoeste 42 Sudoeste 0 -- -- 30
2020-06-26 15:00:00 26.1 21 Sudoeste 36 Sudoeste 0 -- -- 33
2020-06-26 14:00:00 26 21 Sudoeste 37 Sudoeste 0 -- -- 39
2020-06-26 13:00:00 22.8 12 Oeste 28 Sudoeste 0 -- -- 57
2020-06-26 12:00:00 25.2 11 Sudoeste 21 Sudoeste 0 -- -- 53
2020-06-26 11:00:00 23.9 8 Sudoeste 15 Sudoeste 0 -- -- 61
2020-06-26 10:00:00 17.1 7 Oeste 15 Sudoeste 0 -- -- 88
2020-06-26 09:00:00 16.6 4 Sur 8 Sudeste 0 -- -- 89
2020-06-26 08:00:00 15.6 4 Este 9 Este 0 -- -- 89
2020-06-26 07:00:00 14.1 5 Este 12 Este 0 -- -- 93
2020-06-26 06:00:00 14.7 5 Este 12 Este 0 -- -- 92
2020-06-26 05:00:00 15.6 4 Este 12 Nordeste 0 -- -- 90
2020-06-26 04:00:00 16.2 5 Este 15 Este 0 -- -- 87
2020-06-26 03:00:00 16.6 6 Nordeste 15 Nordeste 0 -- -- 86
2020-06-26 02:00:00 17.3 8 Nordeste 15 Nordeste 0 -- -- 85
2020-06-26 01:00:00 18 6 Nordeste 15 Nordeste 0 -- -- 82
2020-06-26 00:00:00 18.8 6 Nordeste 21 Este 0 -- -- 77
2020-06-25 23:00:00 20.5 6 Este 17 Este 0 -- -- 76
2020-06-25 22:00:00 23.2 5 Este 21 Este 0 -- -- 59
2020-06-25 21:00:00 26.5 9 Este 26 Oeste 0 -- -- 49
2020-06-25 20:00:00 28.8 12 Oeste 31 Oeste 0 -- -- 37
2020-06-25 19:00:00 30 17 Oeste 33 Oeste 0 -- -- 34
2020-06-25 18:00:00 30.9 20 Oeste 35 Oeste 0 -- -- 32
2020-06-25 17:00:00 30.7 7 Sur 22 Sudeste 0 -- -- 33
2020-06-25 16:00:00 30.3 8 Oeste 24 Sur 0 -- -- 39
2020-06-25 15:00:00 28.5 6 Oeste 23 Sudeste 0 -- -- 41
2020-06-25 14:00:00 28 9 Sur 22 Sudeste 0 -- -- 44
2020-06-25 13:00:00 23.6 11 Sudeste 18 Sudeste 0 -- -- 63
2020-06-25 12:00:00 21.3 6 Este 24 Este 0 -- -- 71
2020-06-25 11:00:00 21.7 12 Este 33 Este 0.2 -- -- 68
2020-06-25 10:00:00 22.9 12 Este 28 Este 0 -- -- 61
2020-06-25 09:00:00 19.4 9 Nordeste 20 Este 0 -- -- 75
2020-06-25 08:00:00 17.4 11 Nordeste 20 Noroeste 0 -- -- 82
2020-06-25 07:00:00 16.1 12 Noroeste 22 Oeste 0 -- -- 88
2020-06-25 06:00:00 16.4 8 Norte 22 Oeste 0 -- -- 86
2020-06-25 05:00:00 15.6 4 Nordeste 10 Sur 0.4 -- -- 92
2020-06-25 04:00:00 15.8 7 Nordeste 12 Sudoeste 1 -- -- 89
2020-06-25 03:00:00 16.1 5 Este 18 Sudeste 0 -- -- 85
2020-06-25 02:00:00 17.8 8 Nordeste 25 Nordeste 0 -- -- 73
2020-06-25 01:00:00 17.3 8 Nordeste 22 Norte 0.4 -- -- 79
2020-06-25 00:00:00 17.4 14 Norte 33 Norte 0 -- -- 80
2020-06-24 23:00:00 17.5 27 Norte 57 Norte 0.6 -- -- 77
2020-06-24 22:00:00 18.4 34 Noroeste 67 Oeste 0.2 -- -- 79
2020-06-24 21:00:00 25 14 Sudoeste 26 Sudoeste 0 -- -- 36
2020-06-24 20:00:00 25 12 Sudoeste 24 Sudoeste 0 -- -- 38
2020-06-24 19:00:00 26.8 13 Sudoeste 21 Sudoeste 0 -- -- 37
2020-06-24 18:00:00 27.1 9 Sudeste 28 Sudeste 0 -- -- 38
2020-06-24 17:00:00 29.8 11 Sudeste 23 Sudeste 0 -- -- 29
2020-06-24 16:00:00 28.6 9 Nordeste 17 Nordeste 0 -- -- 33
2020-06-24 15:00:00 26 8 Oeste 29 Sudoeste 0 -- -- 40
2020-06-24 14:00:00 27.7 3 Nordeste 19 Este 0 -- -- 41
2020-06-24 13:00:00 29.5 9 Sudeste 19 Sudeste 0 -- -- 34
2020-06-24 12:00:00 27.9 10 Sudeste 23 Este 0 -- -- 37
2020-06-24 11:00:00 25.7 10 Este 19 Este 0 -- -- 43
2020-06-24 10:00:00 23.2 8 Este 21 Este 0 -- -- 49
2020-06-24 09:00:00 21.7 7 Este 15 Este 0 -- -- 52
2020-06-24 08:00:00 19.6 5 Este 13 Nordeste 0 -- -- 56
2020-06-24 07:00:00 16.5 3 Nordeste 9 Este 0 -- -- 70
2020-06-24 06:00:00 17.8 5 Nordeste 11 Sudeste 0 -- -- 65
2020-06-24 05:00:00 18.6 4 Sudeste 10 Nordeste 0 -- -- 60
2020-06-24 04:00:00 20.1 6 Este 17 Nordeste 0 -- -- 56
2020-06-24 03:00:00 21.3 9 Nordeste 23 Nordeste 0 -- -- 53
2020-06-24 02:00:00 22.4 10 Nordeste 19 Este 0 -- -- 52
2020-06-24 01:00:00 23.7 6 Nordeste 21 Este 0 -- -- 44
2020-06-24 00:00:00 26.2 8 Este 22 Sudeste 0 -- -- 35
2020-06-23 23:00:00 26.4 2 Sudeste 21 Sudoeste 0 -- -- 32
2020-06-23 22:00:00 29.7 16 Sudoeste 53 Oeste 0 -- -- 26
2020-06-23 21:00:00 31.8 27 Oeste 43 Sudoeste 0 -- -- 22
2020-06-23 20:00:00 35.1 4 Norte 18 Noroeste 0 -- -- 20
2020-06-23 19:00:00 35.4 7 Oeste 28 Noroeste 0 -- -- 19
2020-06-23 18:00:00 34.8 13 Noroeste 25 Noroeste 0 -- -- 20
2020-06-23 17:00:00 35.3 6 Noroeste 31 Sudoeste 0 -- -- 21
2020-06-23 16:00:00 34.7 10 Sudoeste 29 Sudoeste 0 -- -- 20
2020-06-23 15:00:00 34.5 4 Sur 22 Oeste 0 -- -- 23
2020-06-23 14:00:00 33.1 5 Norte 13 Norte 0 -- -- 27
2020-06-23 13:00:00 30.9 6 Norte 13 Noroeste 0 -- -- 30
2020-06-23 12:00:00 28.6 5 Norte 14 Nordeste 0 -- -- 35
2020-06-23 11:00:00 26 8 Nordeste 17 Este 0 -- -- 40
2020-06-23 10:00:00 23.5 9 Nordeste 19 Nordeste 0 -- -- 45
2020-06-23 09:00:00 20 11 Nordeste 21 Este 0 -- -- 53
2020-06-23 08:00:00 17.2 7 Nordeste 16 Este 0 -- -- 61
2020-06-23 07:00:00 15.7 7 Nordeste 16 Nordeste 0 -- -- 67
2020-06-23 06:00:00 16 9 Nordeste 18 Nordeste 0 -- -- 70
2020-06-23 05:00:00 15.6 7 Nordeste 15 Nordeste 0 -- -- 81
2020-06-23 04:00:00 16.4 10 Nordeste 18 Nordeste 0 -- -- 84
2020-06-23 03:00:00 16.5 9 Nordeste 17 Este 0 -- -- 86
2020-06-23 02:00:00 17.6 8 Nordeste 16 Nordeste 0 -- -- 79
2020-06-23 01:00:00 18.9 7 Nordeste 21 Nordeste 0 -- -- 67
2020-06-23 00:00:00 20.4 13 Nordeste 21 Nordeste 0 -- -- 56
2020-06-22 23:00:00 22.1 9 Nordeste 20 Este 0 -- -- 48
2020-06-22 22:00:00 25.1 7 Este 24 Este 0 -- -- 38
2020-06-22 21:00:00 29.3 8 Nordeste 26 Este 0 -- -- 27
2020-06-22 20:00:00 30.9 10 Nordeste 25 Nordeste 0 -- -- 23
2020-06-22 19:00:00 31.6 9 Nordeste 26 Este 0 -- -- 23
2020-06-22 18:00:00 31.7 9 Este 28 Este 0 -- -- 22
2020-06-22 17:00:00 31.6 10 Este 28 Este 0 -- -- 23
2020-06-22 16:00:00 30.8 8 Este 21 Nordeste 0 -- -- 27
2020-06-22 15:00:00 28.9 12 Nordeste 27 Este 0 -- -- 30
2020-06-22 14:00:00 27.7 11 Este 26 Nordeste 0 -- -- 30
2020-06-22 13:00:00 26.1 11 Este 28 Nordeste 0 -- -- 34
2020-06-22 12:00:00 23.6 12 Este 28 Nordeste 0 -- -- 38
2020-06-22 11:00:00 22 13 Este 26 Nordeste 0 -- -- 47
2020-06-22 10:00:00 19 13 Nordeste 27 Este 0 -- -- 67
2020-06-22 09:00:00 17 11 Nordeste 27 Nordeste 0 -- -- 76
2020-06-22 08:00:00 14.6 10 Nordeste 23 Nordeste 0 -- -- 86
2020-06-22 07:00:00 13.3 11 Nordeste 23 Este 0 -- -- 91
2020-06-22 06:00:00 13.6 8 Nordeste 19 Este 0 -- -- 90
2020-06-22 05:00:00 14 9 Este 21 Este 0 -- -- 88
2020-06-22 04:00:00 14.5 9 Este 25 Nordeste 0 -- -- 87
2020-06-22 03:00:00 14.8 13 Nordeste 27 Nordeste 0 -- -- 85
2020-06-22 02:00:00 15.2 12 Nordeste 25 Este 0 -- -- 83
2020-06-22 01:00:00 15.8 9 Este 25 Este 0 -- -- 80
2020-06-22 00:00:00 17.2 12 Nordeste 21 Nordeste 0 -- -- 74
2020-06-21 23:00:00 19.1 10 Nordeste 29 Este 0 -- -- 65
2020-06-21 22:00:00 22.3 14 Nordeste 37 Nordeste 0 -- -- 56
2020-06-21 21:00:00 27.5 6 Norte 13 Norte 0 -- -- 38
2020-06-21 20:00:00 28.7 9 Noroeste 24 Noroeste 0 -- -- 34
2020-06-21 19:00:00 29.1 10 Noroeste 23 Noroeste 0 -- -- 34
2020-06-21 18:00:00 28.5 9 Norte 28 Oeste 0 -- -- 32
2020-06-21 17:00:00 28.7 14 Noroeste 32 Noroeste 0 -- -- 29
2020-06-21 16:00:00 27.6 13 Oeste 27 Noroeste 0 -- -- 29
2020-06-21 15:00:00 26.7 13 Oeste 28 Oeste 0 -- -- 29
2020-06-21 14:00:00 25.9 12 Oeste 29 Oeste 0 -- -- 30
2020-06-21 13:00:00 24.7 13 Oeste 27 Oeste 0 -- -- 35
2020-06-21 12:00:00 22.7 14 Noroeste 25 Oeste 0 -- -- 42
2020-06-21 11:00:00 21.2 10 Oeste 21 Oeste 0 -- -- 43
2020-06-21 10:00:00 18.5 7 Oeste 17 Oeste 0 -- -- 54
2020-06-21 09:00:00 16 10 Oeste 14 Noroeste 0 -- -- 64
2020-06-21 08:00:00 13.3 7 Oeste 11 Oeste 0 -- -- 84
2020-06-21 07:00:00 9.3 4 Noroeste 8 Noroeste 0 -- -- 94
2020-06-21 06:00:00 9.2 5 Noroeste 8 Noroeste 0 -- -- 87
2020-06-21 05:00:00 12.3 4 Norte 9 Nordeste 0 -- -- 77
2020-06-21 04:00:00 10.7 3 Norte 11 Noroeste 0 -- -- 81
2020-06-21 03:00:00 12.6 6 Noroeste 11 Noroeste 0 -- -- 71
2020-06-21 02:00:00 14.9 5 Noroeste 9 Noroeste 0 -- -- 59
2020-06-21 01:00:00 14 4 Oeste 13 Noroeste 0 -- -- 66
2020-06-21 00:00:00 15.9 11 Oeste 19 Oeste 0 -- -- 57
2020-06-20 23:00:00 16.8 13 Oeste 18 Oeste 0 -- -- 53
2020-06-20 22:00:00 19.1 13 Oeste 24 Oeste 0 -- -- 48
2020-06-20 21:00:00 25.9 16 Oeste 27 Sudoeste 0 -- -- 32
2020-06-20 20:00:00 27.6 18 Oeste 32 Oeste 0 -- -- 29
2020-06-20 19:00:00 28.5 18 Oeste 36 Sudoeste 0 -- -- 29
2020-06-20 18:00:00 28.5 15 Oeste 31 Sudoeste 0 -- -- 27
2020-06-20 17:00:00 28.2 14 Oeste 30 Oeste 0 -- -- 27
2020-06-20 16:00:00 27.7 14 Sudoeste 35 Sudoeste 0 -- -- 27
2020-06-20 15:00:00 26.9 14 Sudoeste 27 Sudoeste 0 -- -- 30
2020-06-20 14:00:00 25.1 9 Oeste 24 Sudoeste 0 -- -- 33
2020-06-20 13:00:00 23.9 8 Sudoeste 13 Oeste 0 -- -- 39
2020-06-20 12:00:00 22.7 6 Sur 13 Este 0 -- -- 40
2020-06-20 11:00:00 21.4 6 Sudeste 16 Este 0 -- -- 44
2020-06-20 10:00:00 18.3 8 Nordeste 15 Este 0 -- -- 54
2020-06-20 09:00:00 16 5 Nordeste 10 Norte 0 -- -- 59
2020-06-20 08:00:00 12.6 4 Nordeste 8 Nordeste 0 -- -- 76
2020-06-20 07:00:00 9.7 5 Norte 8 Nordeste 0 -- -- 84
2020-06-20 06:00:00 9.7 6 Norte 12 Norte 0 -- -- 83
2020-06-20 05:00:00 10 4 Norte 10 Nordeste 0 -- -- 80
2020-06-20 04:00:00 12 5 Nordeste 14 Este 0 -- -- 70
2020-06-20 03:00:00 12.4 7 Nordeste 18 Este 0 -- -- 66
2020-06-20 02:00:00 13.2 7 Este 16 Este 0 -- -- 60
2020-06-20 01:00:00 15 8 Este 19 Nordeste 0 -- -- 58
2020-06-20 00:00:00 15.6 9 Noroeste 19 Oeste 0 -- -- 60
2020-06-19 23:00:00 16.5 12 Noroeste 26 Noroeste 0 -- -- 58
2020-06-19 22:00:00 18.6 12 Sudoeste 14 Sudoeste 0 -- -- 52
2020-06-19 21:00:00 24.7 11 Oeste 23 Sudoeste 0 -- -- 34
2020-06-19 20:00:00 26.8 11 Sudoeste 20 Sudoeste 0 -- -- 30
2020-06-19 19:00:00 26.2 15 Oeste 26 Oeste 0 -- -- 28
2020-06-19 18:00:00 26.5 14 Oeste 33 Sudoeste 0 -- -- 27
2020-06-19 17:00:00 26.5 16 Sudoeste 28 Oeste 0 -- -- 25
2020-06-19 16:00:00 24.8 11 Oeste 26 Oeste 0 -- -- 28
2020-06-19 15:00:00 23.6 12 Oeste 25 Noroeste 0 -- -- 33
2020-06-19 14:00:00 22.6 11 Oeste 23 Oeste 0 -- -- 35
2020-06-19 13:00:00 21.2 9 Oeste 20 Oeste 0 -- -- 40
2020-06-19 12:00:00 19.8 8 Oeste 17 Oeste 0 -- -- 49
2020-06-19 11:00:00 17.6 8 Noroeste 15 Noroeste 0 -- -- 61
2020-06-19 10:00:00 16.5 3 Este 12 Nordeste 0 -- -- 63
2020-06-19 09:00:00 13.4 5 Nordeste 10 Norte 0 -- -- 73
2020-06-19 08:00:00 10.1 3 Norte 7 Noroeste 0 -- -- 87
2020-06-19 07:00:00 6.9 2 Norte 12 Este 0 -- -- 92
2020-06-19 06:00:00 9.2 5 Nordeste 12 Nordeste 0 -- -- 88
2020-06-19 05:00:00 8.8 5 Norte 16 Nordeste 0 -- -- 90
2020-06-19 04:00:00 9.9 7 Nordeste 16 Nordeste 0 -- -- 86
2020-06-19 03:00:00 10.3 9 Nordeste 14 Nordeste 0 -- -- 85
2020-06-19 02:00:00 11 7 Nordeste 15 Nordeste 0 -- -- 85
2020-06-19 01:00:00 12.4 9 Nordeste 23 Norte 0 -- -- 81
2020-06-19 00:00:00 13.7 14 Norte 21 Noroeste 0 -- -- 77
2020-06-18 23:00:00 15.3 8 Este 20 Este 0 -- -- 68
2020-06-18 22:00:00 19.5 4 Nordeste 8 Nordeste 0 -- -- 42
2020-06-18 21:00:00 22.8 5 Noroeste 16 Oeste 0 -- -- 37
2020-06-18 20:00:00 23.1 8 Noroeste 26 Noroeste 0 -- -- 35
2020-06-18 19:00:00 23.7 10 Oeste 23 Oeste 0 -- -- 33
2020-06-18 18:00:00 22.9 15 Oeste 30 Sudoeste 0 -- -- 33
2020-06-18 17:00:00 22.3 18 Oeste 28 Noroeste 0 -- -- 38
2020-06-18 16:00:00 21.2 7 Norte 25 Oeste 0 -- -- 40
2020-06-18 15:00:00 21.7 5 Nordeste 18 Noroeste 0 -- -- 41
2020-06-18 14:00:00 20.6 9 Noroeste 18 Norte 0 -- -- 48
2020-06-18 13:00:00 18.2 8 Oeste 17 Nordeste 0 -- -- 54
2020-06-18 12:00:00 17.7 7 Este 18 Nordeste 0 -- -- 56
2020-06-18 11:00:00 15.8 9 Nordeste 17 Nordeste 0 -- -- 65
2020-06-18 10:00:00 13.8 9 Nordeste 19 Este 0 -- -- 75
2020-06-18 09:00:00 12.8 9 Nordeste 16 Nordeste 0 -- -- 80
2020-06-18 08:00:00 10.6 5 Norte 10 Nordeste 0 -- -- 88
2020-06-18 07:00:00 9.2 6 Nordeste 16 Nordeste 0 -- -- 92
2020-06-18 06:00:00 9.3 8 Nordeste 14 Este 0 -- -- 93
2020-06-18 05:00:00 9.2 7 Nordeste 14 Nordeste 0 -- -- 93
2020-06-18 04:00:00 9.4 5 Nordeste 14 Nordeste 0 -- -- 94
2020-06-18 03:00:00 10.1 8 Nordeste 15 Nordeste 0 -- -- 93
2020-06-18 02:00:00 10.9 6 Nordeste 14 Nordeste 0 -- -- 91
2020-06-18 01:00:00 11 7 Nordeste 17 Nordeste 0.2 -- -- 91
2020-06-18 00:00:00 12 10 Nordeste 19 Nordeste 0.4 -- -- 90
2020-06-17 23:00:00 13 13 Nordeste 23 Nordeste 0 -- -- 85
2020-06-17 22:00:00 13.6 16 Norte 22 Norte 0.2 -- -- 77
2020-06-17 21:00:00 18 5 Norte 9 Nordeste 0 -- -- 46
2020-06-17 20:00:00 19 5 Oeste 16 Noroeste 0 -- -- 42
2020-06-17 19:00:00 20 5 Norte 22 Sudoeste 0 -- -- 38
2020-06-17 18:00:00 21.7 12 Oeste 21 Oeste 0 -- -- 37
2020-06-17 17:00:00 19.3 9 Noroeste 23 Noroeste 0 -- -- 40
2020-06-17 16:00:00 20.3 7 Noroeste 23 Noroeste 0 -- -- 42
2020-06-17 15:00:00 20.5 6 Sur 16 Noroeste 0 -- -- 39
2020-06-17 14:00:00 17.7 6 Noroeste 18 Sudoeste 0 -- -- 47
2020-06-17 13:00:00 17.6 5 Norte 19 Sudoeste 0 -- -- 52
2020-06-17 12:00:00 15.6 8 Noroeste 12 Noroeste 0 -- -- 60
2020-06-17 11:00:00 14.4 6 Sudoeste 12 Sur 0 -- -- 68
2020-06-17 10:00:00 15 6 Sur 12 Sudeste 0 -- -- 67
2020-06-17 09:00:00 14.5 8 Sur 11 Sudeste 0 -- -- 73
2020-06-17 08:00:00 9.7 0 Calma 5 Norte 0 -- -- 98
2020-06-17 07:00:00 6.5 3 Norte 6 Noroeste 0 -- -- 97
2020-06-17 06:00:00 8.3 0 Calma 6 Oeste 0 -- -- 96
2020-06-17 05:00:00 8.6 3 Nordeste 6 Norte 0 -- -- 95
2020-06-17 04:00:00 9.9 3 Este 6 Nordeste 0 -- -- 91
2020-06-17 03:00:00 10 0 Calma 12 Nordeste 0 -- -- 90
2020-06-17 02:00:00 10.8 5 Nordeste 16 Este 0 -- -- 87
2020-06-17 01:00:00 11.1 5 Nordeste 17 Nordeste 0 -- -- 84
2020-06-17 00:00:00 11 9 Norte 16 Noroeste 0 -- -- 77
2020-06-16 23:00:00 11 12 Noroeste 27 Noroeste 0 -- -- 76
2020-06-16 22:00:00 12.5 11 Noroeste 28 Oeste 0 -- -- 69
2020-06-16 21:00:00 15.8 22 Noroeste 43 Noroeste 0 -- -- 57
2020-06-16 20:00:00 18.2 24 Noroeste 41 Noroeste 0 -- -- 49
2020-06-16 19:00:00 17.8 21 Noroeste 35 Sudoeste 0 -- -- 58
2020-06-16 18:00:00 16.6 13 Oeste 32 Sudoeste 0.6 -- -- 80
2020-06-16 17:00:00 13.5 18 Sudoeste 39 Noroeste 1.4 -- -- 93
2020-06-16 16:00:00 17 30 Sudoeste 42 Sudoeste 0 -- -- 60
2020-06-16 15:00:00 16 18 Oeste 51 Oeste 2 -- -- 70
2020-06-16 14:00:00 20.5 13 Oeste 31 Oeste 0 -- -- 46
2020-06-16 13:00:00 20 18 Oeste 30 Oeste 0 -- -- 48
2020-06-16 12:00:00 18.5 18 Oeste 30 Oeste 0 -- -- 55
2020-06-16 11:00:00 16 9 Oeste 24 Oeste 0 -- -- 60
2020-06-16 10:00:00 15.1 12 Oeste 20 Oeste 0 -- -- 61
2020-06-16 09:00:00 13.7 6 Oeste 13 Oeste 0 -- -- 71
2020-06-16 08:00:00 9.8 5 Oeste 9 Oeste 0 -- -- 89
2020-06-16 07:00:00 6.9 4 Oeste 14 Oeste 0 -- -- 94
2020-06-16 06:00:00 7.1 8 Oeste 10 Oeste 0 -- -- 92
2020-06-16 05:00:00 9.4 9 Oeste 13 Oeste 0 -- -- 86
2020-06-16 04:00:00 10.9 9 Oeste 18 Oeste 0 -- -- 79
2020-06-16 03:00:00 12.1 10 Oeste 25 Noroeste 0 -- -- 75
2020-06-16 02:00:00 12.3 14 Oeste 22 Oeste 0 -- -- 72
2020-06-16 01:00:00 13.5 14 Oeste 23 Noroeste 0 -- -- 67
2020-06-16 00:00:00 14.2 14 Noroeste 23 Noroeste 0 -- -- 66
2020-06-15 23:00:00 15.2 14 Noroeste 23 Noroeste 0 -- -- 61
2020-06-15 22:00:00 15.5 11 Noroeste 24 Oeste 0 -- -- 59
2020-06-15 21:00:00 17.5 18 Oeste 30 Oeste 0 -- -- 55
2020-06-15 20:00:00 18.5 15 Oeste 26 Oeste 0 -- -- 52
2020-06-15 19:00:00 19.3 13 Oeste 26 Sudoeste 0 -- -- 47
2020-06-15 18:00:00 19.9 17 Oeste 39 Sudoeste 0 -- -- 45
2020-06-15 17:00:00 20.5 13 Oeste 27 Sudoeste 0 -- -- 44
2020-06-15 16:00:00 20.2 14 Oeste 30 Oeste 0 -- -- 43
2020-06-15 15:00:00 20.5 13 Oeste 28 Oeste 0 -- -- 45
2020-06-15 14:00:00 19.4 12 Oeste 31 Oeste 0 -- -- 46
2020-06-15 13:00:00 18.2 10 Oeste 27 Oeste 0 -- -- 51
2020-06-15 12:00:00 17.3 10 Noroeste 22 Oeste 0 -- -- 53
2020-06-15 11:00:00 16.9 9 Oeste 19 Noroeste 0 -- -- 54
2020-06-15 10:00:00 15.1 11 Oeste 19 Oeste 0 -- -- 62
2020-06-15 09:00:00 12.9 11 Oeste 15 Oeste 0 -- -- 72
2020-06-15 08:00:00 9.9 6 Oeste 10 Oeste 0 -- -- 88
2020-06-15 07:00:00 6.1 3 Noroeste 10 Oeste 0 -- -- 94
2020-06-15 06:00:00 6.3 6 Oeste 12 Oeste 0 -- -- 94
2020-06-15 05:00:00 7.6 9 Oeste 16 Oeste 0 -- -- 91
2020-06-15 04:00:00 7.1 10 Noroeste 12 Noroeste 0 -- -- 95
2020-06-15 03:00:00 7.7 8 Oeste 13 Oeste 0 -- -- 92
2020-06-15 02:00:00 8.4 6 Sudoeste 13 Oeste 0 -- -- 92
2020-06-15 01:00:00 9.9 9 Oeste 14 Noroeste 0 -- -- 83
2020-06-15 00:00:00 13.1 13 Noroeste 21 Noroeste 0 -- -- 70
2020-06-14 23:00:00 14.9 14 Noroeste 26 Oeste 0 -- -- 62
2020-06-14 22:00:00 15.5 9 Oeste 15 Noroeste 0 -- -- 62
2020-06-14 21:00:00 16.6 11 Noroeste 19 Noroeste 0 -- -- 56
2020-06-14 20:00:00 17.7 13 Noroeste 22 Noroeste 0 -- -- 52
2020-06-14 19:00:00 19.1 13 Oeste 36 Noroeste 0 -- -- 47
2020-06-14 18:00:00 19.7 15 Noroeste 35 Oeste 0 -- -- 45
2020-06-14 17:00:00 20.3 18 Oeste 37 Oeste 0 -- -- 41
2020-06-14 16:00:00 19.1 16 Oeste 31 Oeste 0 -- -- 44
2020-06-14 15:00:00 18.2 16 Oeste 32 Oeste 0 -- -- 47
2020-06-14 14:00:00 18.9 18 Oeste 31 Sudoeste 0 -- -- 43
2020-06-14 13:00:00 18.4 11 Oeste 27 Oeste 0 -- -- 45
2020-06-14 12:00:00 16.8 12 Sudoeste 23 Oeste 0 -- -- 48
2020-06-14 11:00:00 14.6 10 Sudoeste 15 Sudoeste 0 -- -- 61
2020-06-14 10:00:00 13.3 6 Sur 12 Sudoeste 0 -- -- 70
2020-06-14 09:00:00 10.9 7 Sudoeste 9 Sudoeste 0 -- -- 86
2020-06-14 08:00:00 8 5 Sudoeste 9 Sudoeste 0 -- -- 93
2020-06-14 07:00:00 6.2 3 Sudoeste 6 Sudeste 0 -- -- 97
2020-06-14 06:00:00 5.4 0 Calma 4 Sudeste 0 -- -- 98
2020-06-14 05:00:00 4.7 3 Sudoeste 4 Oeste 0 -- -- 97
2020-06-14 04:00:00 4.5 4 Oeste 6 Noroeste 0 -- -- 95
2020-06-14 03:00:00 5.9 0 Calma 7 Oeste 0 -- -- 94
2020-06-14 02:00:00 6.6 4 Oeste 11 Oeste 0 -- -- 92
2020-06-14 01:00:00 7.8 10 Oeste 18 Oeste 0 -- -- 90
2020-06-14 00:00:00 9.2 12 Oeste 16 Oeste 0 -- -- 85
2020-06-13 23:00:00 9.9 10 Oeste 17 Oeste 0 -- -- 82
2020-06-13 22:00:00 11.9 10 Oeste 30 Oeste 0 -- -- 72
2020-06-13 21:00:00 16.3 19 Oeste 31 Oeste 0 -- -- 53
2020-06-13 20:00:00 16.6 19 Sudoeste 33 Sudoeste 0 -- -- 54
2020-06-13 19:00:00 16.8 23 Sudoeste 36 Sudoeste 0 -- -- 57
2020-06-13 18:00:00 16.2 28 Sudoeste 39 Sudoeste 0 -- -- 59
2020-06-13 17:00:00 17.3 23 Sudoeste 38 Oeste 0 -- -- 54
2020-06-13 16:00:00 17.6 22 Sudoeste 36 Oeste 0 -- -- 52
2020-06-13 15:00:00 16.9 24 Oeste 40 Oeste 0 -- -- 53
2020-06-13 14:00:00 16.5 19 Sudoeste 33 Oeste 0 -- -- 54
2020-06-13 13:00:00 15.1 17 Oeste 38 Oeste 0 -- -- 60
2020-06-13 12:00:00 16 18 Sudoeste 33 Sudoeste 0 -- -- 58
2020-06-13 11:00:00 13.4 23 Oeste 37 Oeste 0 -- -- 69
2020-06-13 10:00:00 12.6 24 Oeste 35 Oeste 0 -- -- 81
2020-06-13 09:00:00 10.4 23 Sudoeste 32 Sudoeste 0 -- -- 89
2020-06-13 08:00:00 8.2 16 Oeste 28 Sudoeste 0 -- -- 95
2020-06-13 07:00:00 7.1 14 Sudoeste 24 Sudoeste 0 -- -- 97
2020-06-13 06:00:00 6.7 13 Sudoeste 27 Oeste 0 -- -- 97
2020-06-13 05:00:00 7.7 20 Sudoeste 38 Oeste 0 -- -- 96
2020-06-13 04:00:00 8.2 22 Sudoeste 31 Oeste 0 -- -- 97
2020-06-13 03:00:00 8.5 19 Sudoeste 28 Sudoeste 0 -- -- 97
2020-06-13 02:00:00 8.6 18 Sudoeste 30 Sudoeste 0 -- -- 97
2020-06-13 01:00:00 9 20 Sudoeste 32 Oeste 0 -- -- 97
2020-06-13 00:00:00 9.4 22 Sudoeste 33 Sudoeste 0 -- -- 96
2020-06-12 23:00:00 9 19 Sudoeste 29 Sudoeste 0 -- -- 95
2020-06-12 22:00:00 9.6 17 Sudoeste 25 Oeste 0.6 -- -- 93
2020-06-12 21:00:00 11.4 9 Oeste 42 Sudoeste 0.6 -- -- 86
2020-06-12 20:00:00 12.7 29 Sudoeste 47 Sudoeste 0 -- -- 76
2020-06-12 19:00:00 14.9 28 Sudoeste 43 Sudoeste 0 -- -- 71
2020-06-12 18:00:00 13.3 27 Sudoeste 42 Oeste 0 -- -- 77
2020-06-12 17:00:00 12.5 27 Oeste 47 Oeste 0.4 -- -- 74
2020-06-12 16:00:00 11.1 23 Oeste 45 Oeste 2 -- -- 89
2020-06-12 15:00:00 11.8 24 Oeste 62 Sudoeste 0.4 -- -- 85
2020-06-12 14:00:00 14.8 35 Oeste 48 Oeste 0 -- -- 56
2020-06-12 13:00:00 15.6 27 Oeste 42 Oeste 0 -- -- 52
2020-06-12 12:00:00 14.4 24 Oeste 38 Oeste 0 -- -- 51
2020-06-12 11:00:00 12.2 18 Oeste 35 Sudoeste 0 -- -- 71
2020-06-12 10:00:00 11.2 28 Oeste 46 Sudoeste 0 -- -- 79
2020-06-12 09:00:00 9.7 27 Sudoeste 54 Sudoeste 0.4 -- -- 95
2020-06-12 08:00:00 8.4 30 Sudoeste 45 Sudoeste 0.2 -- -- 94
2020-06-12 07:00:00 8 29 Sudoeste 48 Sudoeste 0.6 -- -- 94
2020-06-12 06:00:00 8.2 30 Sudoeste 48 Sudoeste 0.2 -- -- 91
2020-06-12 05:00:00 8.5 30 Sudoeste 48 Sudoeste 0 -- -- 79
2020-06-12 04:00:00 8.7 30 Sudoeste 50 Sudoeste 0 -- -- 75
2020-06-12 03:00:00 8.5 32 Sudoeste 47 Sudoeste 0 -- -- 75
2020-06-12 02:00:00 7.9 25 Sudoeste 41 Sudoeste 0 -- -- 77
2020-06-12 01:00:00 7.7 21 Sudoeste 29 Sudoeste 0 -- -- 79
2020-06-12 00:00:00 7.7 20 Sudoeste 29 Oeste 0 -- -- 81